sensor_id;sensor_type;location;lat;lon;timestamp;P1;durP1;ratioP1;P2;durP2;ratioP2
13457;SDS011;6801;53.018;11.560;2023-03-14T00:00:58;2.42;;;0.88;;
13457;SDS011;6801;53.018;11.560;2023-03-14T00:03:25;1.42;;;0.93;;
13457;SDS011;6801;53.018;11.560;2023-03-14T00:05:51;2.70;;;1.00;;
13457;SDS011;6801;53.018;11.560;2023-03-14T00:08:18;2.05;;;0.82;;
13457;SDS011;6801;53.018;11.560;2023-03-14T00:10:46;1.52;;;1.00;;
13457;SDS011;6801;53.018;11.560;2023-03-14T00:13:13;3.00;;;0.98;;
13457;SDS011;6801;53.018;11.560;2023-03-14T00:15:41;1.55;;;1.02;;
13457;SDS011;6801;53.018;11.560;2023-03-14T00:18:08;2.45;;;1.00;;
13457;SDS011;6801;53.018;11.560;2023-03-14T00:20:35;2.58;;;0.90;;
13457;SDS011;6801;53.018;11.560;2023-03-14T00:23:02;3.70;;;1.13;;
13457;SDS011;6801;53.018;11.560;2023-03-14T00:25:29;2.13;;;0.98;;
13457;SDS011;6801;53.018;11.560;2023-03-14T00:27:56;2.20;;;0.95;;
13457;SDS011;6801;53.018;11.560;2023-03-14T00:30:22;4.53;;;1.35;;
13457;SDS011;6801;53.018;11.560;2023-03-14T00:32:51;2.33;;;1.20;;
13457;SDS011;6801;53.018;11.560;2023-03-14T00:35:18;2.05;;;0.80;;
13457;SDS011;6801;53.018;11.560;2023-03-14T00:37:45;3.13;;;0.90;;
13457;SDS011;6801;53.018;11.560;2023-03-14T00:40:12;1.88;;;1.00;;
13457;SDS011;6801;53.018;11.560;2023-03-14T00:42:39;2.30;;;1.10;;
13457;SDS011;6801;53.018;11.560;2023-03-14T00:45:06;3.47;;;1.73;;
13457;SDS011;6801;53.018;11.560;2023-03-14T00:47:35;4.13;;;1.27;;
13457;SDS011;6801;53.018;11.560;2023-03-14T00:50:03;2.85;;;1.00;;
13457;SDS011;6801;53.018;11.560;2023-03-14T00:52:31;1.67;;;0.80;;
13457;SDS011;6801;53.018;11.560;2023-03-14T00:54:58;3.22;;;1.17;;
13457;SDS011;6801;53.018;11.560;2023-03-14T00:57:25;2.03;;;1.00;;
13457;SDS011;6801;53.018;11.560;2023-03-14T00:59:52;2.92;;;1.00;;
13457;SDS011;6801;53.018;11.560;2023-03-14T01:02:19;1.50;;;1.00;;
13457;SDS011;6801;53.018;11.560;2023-03-14T01:04:48;2.05;;;0.95;;
13457;SDS011;6801;53.018;11.560;2023-03-14T01:07:16;2.30;;;1.10;;
13457;SDS011;6801;53.018;11.560;2023-03-14T01:09:43;2.58;;;1.00;;
13457;SDS011;6801;53.018;11.560;2023-03-14T01:12:10;4.32;;;0.93;;
13457;SDS011;6801;53.018;11.560;2023-03-14T01:14:37;1.40;;;1.00;;
13457;SDS011;6801;53.018;11.560;2023-03-14T01:17:04;3.20;;;1.30;;
13457;SDS011;6801;53.018;11.560;2023-03-14T01:19:31;1.95;;;0.95;;
13457;SDS011;6801;53.018;11.560;2023-03-14T01:21:58;3.22;;;0.80;;
13457;SDS011;6801;53.018;11.560;2023-03-14T01:24:26;3.17;;;1.27;;
13457;SDS011;6801;53.018;11.560;2023-03-14T01:26:54;2.03;;;1.00;;
13457;SDS011;6801;53.018;11.560;2023-03-14T01:29:23;3.00;;;0.90;;
13457;SDS011;6801;53.018;11.560;2023-03-14T01:31:50;4.00;;;0.90;;
13457;SDS011;6801;53.018;11.560;2023-03-14T01:34:17;2.80;;;0.75;;
13457;SDS011;6801;53.018;11.560;2023-03-14T01:36:44;3.63;;;1.05;;
13457;SDS011;6801;53.018;11.560;2023-03-14T01:39:11;1.50;;;0.90;;
13457;SDS011;6801;53.018;11.560;2023-03-14T01:41:40;3.40;;;1.02;;
13457;SDS011;6801;53.018;11.560;2023-03-14T01:44:09;1.08;;;0.73;;
13457;SDS011;6801;53.018;11.560;2023-03-14T01:46:37;4.35;;;0.93;;
13457;SDS011;6801;53.018;11.560;2023-03-14T01:49:11;3.80;;;1.27;;
13457;SDS011;6801;53.018;11.560;2023-03-14T01:51:47;3.17;;;1.00;;
13457;SDS011;6801;53.018;11.560;2023-03-14T01:54:20;4.28;;;1.35;;
13457;SDS011;6801;53.018;11.560;2023-03-14T01:56:54;1.90;;;1.00;;
13457;SDS011;6801;53.018;11.560;2023-03-14T01:59:23;2.63;;;0.93;;
13457;SDS011;6801;53.018;11.560;2023-03-14T02:01:52;4.15;;;1.20;;
13457;SDS011;6801;53.018;11.560;2023-03-14T02:04:22;1.80;;;0.97;;
13457;SDS011;6801;53.018;11.560;2023-03-14T02:06:51;2.65;;;0.90;;
13457;SDS011;6801;53.018;11.560;2023-03-14T02:09:26;5.10;;;0.90;;
13457;SDS011;6801;53.018;11.560;2023-03-14T02:11:54;2.40;;;1.00;;
13457;SDS011;6801;53.018;11.560;2023-03-14T02:14:45;4.80;;;0.90;;
13457;SDS011;6801;53.018;11.560;2023-03-14T02:20:22;5.45;;;1.10;;
13457;SDS011;6801;53.018;11.560;2023-03-14T02:22:57;2.58;;;1.35;;
13457;SDS011;6801;53.018;11.560;2023-03-14T02:25:28;1.73;;;1.00;;
13457;SDS011;6801;53.018;11.560;2023-03-14T02:28:05;3.75;;;0.88;;
13457;SDS011;6801;53.018;11.560;2023-03-14T02:30:33;1.50;;;0.80;;
13457;SDS011;6801;53.018;11.560;2023-03-14T02:33:01;2.30;;;0.88;;
13457;SDS011;6801;53.018;11.560;2023-03-14T02:35:32;1.98;;;0.90;;
13457;SDS011;6801;53.018;11.560;2023-03-14T02:38:03;2.25;;;0.98;;
13457;SDS011;6801;53.018;11.560;2023-03-14T02:40:40;2.47;;;0.80;;
13457;SDS011;6801;53.018;11.560;2023-03-14T02:43:08;2.85;;;0.95;;
13457;SDS011;6801;53.018;11.560;2023-03-14T02:45:39;2.08;;;0.80;;
13457;SDS011;6801;53.018;11.560;2023-03-14T02:48:14;3.42;;;0.93;;
13457;SDS011;6801;53.018;11.560;2023-03-14T02:50:43;2.33;;;0.90;;
13457;SDS011;6801;53.018;11.560;2023-03-14T02:53:12;2.45;;;0.90;;
13457;SDS011;6801;53.018;11.560;2023-03-14T02:56:05;4.03;;;0.90;;
13457;SDS011;6801;53.018;11.560;2023-03-14T02:58:35;2.13;;;1.00;;
13457;SDS011;6801;53.018;11.560;2023-03-14T03:01:25;1.98;;;0.73;;
13457;SDS011;6801;53.018;11.560;2023-03-14T03:03:53;2.55;;;0.80;;
13457;SDS011;6801;53.018;11.560;2023-03-14T03:06:20;3.42;;;1.25;;
13457;SDS011;6801;53.018;11.560;2023-03-14T03:08:47;3.65;;;0.82;;
13457;SDS011;6801;53.018;11.560;2023-03-14T03:11:14;4.18;;;1.45;;
13457;SDS011;6801;53.018;11.560;2023-03-14T03:13:43;3.25;;;0.90;;
13457;SDS011;6801;53.018;11.560;2023-03-14T03:16:10;2.95;;;1.23;;
13457;SDS011;6801;53.018;11.560;2023-03-14T03:18:38;1.45;;;0.80;;
13457;SDS011;6801;53.018;11.560;2023-03-14T03:21:06;3.22;;;1.00;;
13457;SDS011;6801;53.018;11.560;2023-03-14T03:23:34;1.60;;;0.88;;
13457;SDS011;6801;53.018;11.560;2023-03-14T03:26:03;2.78;;;1.02;;
13457;SDS011;6801;53.018;11.560;2023-03-14T03:28:30;1.83;;;0.82;;
13457;SDS011;6801;53.018;11.560;2023-03-14T03:31:05;3.88;;;0.73;;
13457;SDS011;6801;53.018;11.560;2023-03-14T03:33:34;3.70;;;1.25;;
13457;SDS011;6801;53.018;11.560;2023-03-14T03:36:02;4.38;;;1.10;;
13457;SDS011;6801;53.018;11.560;2023-03-14T03:38:33;3.15;;;0.95;;
13457;SDS011;6801;53.018;11.560;2023-03-14T03:41:02;1.40;;;0.80;;
13457;SDS011;6801;53.018;11.560;2023-03-14T03:43:30;3.70;;;0.90;;
13457;SDS011;6801;53.018;11.560;2023-03-14T03:46:03;4.00;;;1.00;;
13457;SDS011;6801;53.018;11.560;2023-03-14T03:48:31;3.90;;;0.88;;
13457;SDS011;6801;53.018;11.560;2023-03-14T03:51:01;3.35;;;1.10;;
13457;SDS011;6801;53.018;11.560;2023-03-14T03:53:28;2.47;;;0.80;;
13457;SDS011;6801;53.018;11.560;2023-03-14T03:55:55;2.15;;;0.57;;
13457;SDS011;6801;53.018;11.560;2023-03-14T03:58:22;3.22;;;0.90;;
13457;SDS011;6801;53.018;11.560;2023-03-14T04:00:50;3.55;;;1.15;;
13457;SDS011;6801;53.018;11.560;2023-03-14T04:03:18;1.73;;;0.77;;
13457;SDS011;6801;53.018;11.560;2023-03-14T04:05:45;1.92;;;0.80;;
13457;SDS011;6801;53.018;11.560;2023-03-14T04:08:12;2.80;;;0.77;;
13457;SDS011;6801;53.018;11.560;2023-03-14T04:10:39;3.60;;;0.80;;
13457;SDS011;6801;53.018;11.560;2023-03-14T04:13:19;2.33;;;0.80;;
13457;SDS011;6801;53.018;11.560;2023-03-14T04:15:50;2.15;;;0.82;;
13457;SDS011;6801;53.018;11.560;2023-03-14T04:18:25;2.10;;;0.70;;
13457;SDS011;6801;53.018;11.560;2023-03-14T04:20:52;3.20;;;0.73;;
13457;SDS011;6801;53.018;11.560;2023-03-14T04:23:23;1.88;;;0.68;;
13457;SDS011;6801;53.018;11.560;2023-03-14T04:25:51;1.27;;;0.70;;
13457;SDS011;6801;53.018;11.560;2023-03-14T04:28:20;3.50;;;0.80;;
13457;SDS011;6801;53.018;11.560;2023-03-14T04:30:47;1.85;;;0.60;;
13457;SDS011;6801;53.018;11.560;2023-03-14T04:33:19;1.63;;;0.77;;
13457;SDS011;6801;53.018;11.560;2023-03-14T04:35:54;2.13;;;0.70;;
13457;SDS011;6801;53.018;11.560;2023-03-14T04:38:21;2.50;;;0.68;;
13457;SDS011;6801;53.018;11.560;2023-03-14T04:40:49;4.03;;;0.50;;
13457;SDS011;6801;53.018;11.560;2023-03-14T04:43:18;5.20;;;1.13;;
13457;SDS011;6801;53.018;11.560;2023-03-14T04:45:49;2.53;;;0.88;;
13457;SDS011;6801;53.018;11.560;2023-03-14T04:48:17;6.32;;;0.80;;
13457;SDS011;6801;53.018;11.560;2023-03-14T04:50:44;3.17;;;0.73;;
13457;SDS011;6801;53.018;11.560;2023-03-14T04:53:14;2.80;;;0.77;;
13457;SDS011;6801;53.018;11.560;2023-03-14T04:55:47;4.40;;;0.65;;
13457;SDS011;6801;53.018;11.560;2023-03-14T04:58:14;1.98;;;0.57;;
13457;SDS011;6801;53.018;11.560;2023-03-14T05:00:42;1.80;;;0.88;;
13457;SDS011;6801;53.018;11.560;2023-03-14T05:03:35;2.33;;;0.80;;
13457;SDS011;6801;53.018;11.560;2023-03-14T05:06:13;3.35;;;0.82;;
13457;SDS011;6801;53.018;11.560;2023-03-14T05:09:01;2.10;;;0.43;;
13457;SDS011;6801;53.018;11.560;2023-03-14T05:11:39;2.10;;;0.60;;
13457;SDS011;6801;53.018;11.560;2023-03-14T05:14:32;2.10;;;1.00;;
13457;SDS011;6801;53.018;11.560;2023-03-14T05:17:18;1.98;;;0.40;;
13457;SDS011;6801;53.018;11.560;2023-03-14T05:20:11;2.60;;;0.45;;
13457;SDS011;6801;53.018;11.560;2023-03-14T05:23:08;1.55;;;0.63;;
13457;SDS011;6801;53.018;11.560;2023-03-14T05:26:03;3.88;;;0.88;;
13457;SDS011;6801;53.018;11.560;2023-03-14T05:28:53;1.85;;;0.70;;
13457;SDS011;6801;53.018;11.560;2023-03-14T05:31:29;1.92;;;0.63;;
13457;SDS011;6801;53.018;11.560;2023-03-14T05:34:16;3.00;;;1.10;;
13457;SDS011;6801;53.018;11.560;2023-03-14T05:37:01;3.00;;;0.60;;
13457;SDS011;6801;53.018;11.560;2023-03-14T05:39:51;1.65;;;0.65;;
13457;SDS011;6801;53.018;11.560;2023-03-14T05:42:34;2.78;;;0.63;;
13457;SDS011;6801;53.018;11.560;2023-03-14T05:45:30;5.20;;;0.90;;
13457;SDS011;6801;53.018;11.560;2023-03-14T05:48:06;2.40;;;0.40;;
13457;SDS011;6801;53.018;11.560;2023-03-14T05:50:56;2.53;;;0.77;;
13457;SDS011;6801;53.018;11.560;2023-03-14T05:53:36;3.70;;;0.65;;
13457;SDS011;6801;53.018;11.560;2023-03-14T05:56:33;4.00;;;0.98;;
13457;SDS011;6801;53.018;11.560;2023-03-14T05:59:15;2.70;;;0.50;;
13457;SDS011;6801;53.018;11.560;2023-03-14T06:01:51;4.60;;;0.70;;
13457;SDS011;6801;53.018;11.560;2023-03-14T06:06:53;2.88;;;0.63;;
13457;SDS011;6801;53.018;11.560;2023-03-14T06:09:21;1.83;;;0.65;;
13457;SDS011;6801;53.018;11.560;2023-03-14T06:11:49;2.13;;;0.32;;
13457;SDS011;6801;53.018;11.560;2023-03-14T06:14:17;2.00;;;0.55;;
13457;SDS011;6801;53.018;11.560;2023-03-14T06:16:46;3.05;;;0.68;;
13457;SDS011;6801;53.018;11.560;2023-03-14T06:19:16;1.58;;;0.50;;
13457;SDS011;6801;53.018;11.560;2023-03-14T06:21:43;2.35;;;0.43;;
13457;SDS011;6801;53.018;11.560;2023-03-14T06:24:10;2.75;;;0.98;;
13457;SDS011;6801;53.018;11.560;2023-03-14T06:26:41;2.03;;;0.55;;
13457;SDS011;6801;53.018;11.560;2023-03-14T06:29:08;3.13;;;0.82;;
13457;SDS011;6801;53.018;11.560;2023-03-14T06:31:38;2.28;;;0.50;;
13457;SDS011;6801;53.018;11.560;2023-03-14T06:34:06;2.25;;;0.22;;
13457;SDS011;6801;53.018;11.560;2023-03-14T06:36:33;3.20;;;0.70;;
13457;SDS011;6801;53.018;11.560;2023-03-14T06:39:01;4.40;;;0.52;;
13457;SDS011;6801;53.018;11.560;2023-03-14T06:41:30;1.23;;;0.50;;
13457;SDS011;6801;53.018;11.560;2023-03-14T06:43:58;1.52;;;0.63;;
13457;SDS011;6801;53.018;11.560;2023-03-14T06:46:25;1.10;;;0.20;;
13457;SDS011;6801;53.018;11.560;2023-03-14T06:48:54;4.10;;;0.40;;
13457;SDS011;6801;53.018;11.560;2023-03-14T06:51:21;4.43;;;0.75;;
13457;SDS011;6801;53.018;11.560;2023-03-14T06:53:49;0.22;;;0.10;;
13457;SDS011;6801;53.018;11.560;2023-03-14T06:56:19;1.50;;;0.30;;
13457;SDS011;6801;53.018;11.560;2023-03-14T06:58:46;1.13;;;0.40;;
13457;SDS011;6801;53.018;11.560;2023-03-14T07:01:17;0.82;;;0.40;;
13457;SDS011;6801;53.018;11.560;2023-03-14T07:03:48;1.08;;;0.40;;
13457;SDS011;6801;53.018;11.560;2023-03-14T07:06:17;0.98;;;0.40;;
13457;SDS011;6801;53.018;11.560;2023-03-14T07:08:44;1.10;;;0.13;;
13457;SDS011;6801;53.018;11.560;2023-03-14T07:11:13;1.27;;;0.28;;
13457;SDS011;6801;53.018;11.560;2023-03-14T07:13:40;2.20;;;0.25;;
13457;SDS011;6801;53.018;11.560;2023-03-14T07:16:08;2.00;;;0.28;;
13457;SDS011;6801;53.018;11.560;2023-03-14T07:18:36;5.15;;;0.30;;
13457;SDS011;6801;53.018;11.560;2023-03-14T07:21:05;3.45;;;0.52;;
13457;SDS011;6801;53.018;11.560;2023-03-14T07:23:33;2.35;;;0.20;;
13457;SDS011;6801;53.018;11.560;2023-03-14T07:26:01;3.30;;;0.77;;
13457;SDS011;6801;53.018;11.560;2023-03-14T07:28:30;2.47;;;0.50;;
13457;SDS011;6801;53.018;11.560;2023-03-14T07:31:05;3.22;;;0.40;;
13457;SDS011;6801;53.018;11.560;2023-03-14T07:33:32;1.67;;;0.43;;
13457;SDS011;6801;53.018;11.560;2023-03-14T07:36:00;3.33;;;0.45;;
13457;SDS011;6801;53.018;11.560;2023-03-14T07:38:28;4.45;;;0.73;;
13457;SDS011;6801;53.018;11.560;2023-03-14T07:41:17;1.88;;;0.43;;
13457;SDS011;6801;53.018;11.560;2023-03-14T07:44:05;5.05;;;0.68;;
13457;SDS011;6801;53.018;11.560;2023-03-14T07:46:32;3.35;;;0.43;;
13457;SDS011;6801;53.018;11.560;2023-03-14T07:48:59;1.67;;;0.43;;
13457;SDS011;6801;53.018;11.560;2023-03-14T07:51:26;2.97;;;0.60;;
13457;SDS011;6801;53.018;11.560;2023-03-14T07:53:53;2.72;;;0.88;;
13457;SDS011;6801;53.018;11.560;2023-03-14T07:56:21;3.20;;;0.47;;
13457;SDS011;6801;53.018;11.560;2023-03-14T07:58:48;3.45;;;0.55;;
13457;SDS011;6801;53.018;11.560;2023-03-14T08:01:15;3.97;;;1.10;;
13457;SDS011;6801;53.018;11.560;2023-03-14T08:03:42;3.22;;;0.52;;
13457;SDS011;6801;53.018;11.560;2023-03-14T08:06:09;3.83;;;0.40;;
13457;SDS011;6801;53.018;11.560;2023-03-14T08:08:36;1.52;;;0.40;;
13457;SDS011;6801;53.018;11.560;2023-03-14T08:11:04;4.53;;;0.60;;
13457;SDS011;6801;53.018;11.560;2023-03-14T08:13:35;5.35;;;1.75;;
13457;SDS011;6801;53.018;11.560;2023-03-14T08:16:03;4.25;;;1.10;;
13457;SDS011;6801;53.018;11.560;2023-03-14T08:18:31;3.80;;;0.90;;
13457;SDS011;6801;53.018;11.560;2023-03-14T08:20:58;3.58;;;1.15;;
13457;SDS011;6801;53.018;11.560;2023-03-14T08:23:25;2.40;;;0.50;;
13457;SDS011;6801;53.018;11.560;2023-03-14T08:25:52;3.42;;;0.57;;
13457;SDS011;6801;53.018;11.560;2023-03-14T08:28:19;3.90;;;0.82;;
13457;SDS011;6801;53.018;11.560;2023-03-14T08:30:47;8.15;;;0.90;;
13457;SDS011;6801;53.018;11.560;2023-03-14T08:33:14;2.65;;;0.55;;
13457;SDS011;6801;53.018;11.560;2023-03-14T08:35:41;0.80;;;0.28;;
13457;SDS011;6801;53.018;11.560;2023-03-14T08:38:08;3.83;;;0.80;;
13457;SDS011;6801;53.018;11.560;2023-03-14T08:40:35;1.83;;;0.52;;
13457;SDS011;6801;53.018;11.560;2023-03-14T08:43:02;2.97;;;0.68;;
13457;SDS011;6801;53.018;11.560;2023-03-14T08:45:29;2.85;;;0.65;;
13457;SDS011;6801;53.018;11.560;2023-03-14T08:47:58;3.30;;;0.45;;
13457;SDS011;6801;53.018;11.560;2023-03-14T08:50:25;4.28;;;0.40;;
13457;SDS011;6801;53.018;11.560;2023-03-14T08:52:52;3.03;;;0.20;;
13457;SDS011;6801;53.018;11.560;2023-03-14T08:55:19;2.92;;;0.57;;
13457;SDS011;6801;53.018;11.560;2023-03-14T08:57:46;2.03;;;0.50;;
13457;SDS011;6801;53.018;11.560;2023-03-14T09:00:13;3.63;;;0.70;;
13457;SDS011;6801;53.018;11.560;2023-03-14T09:02:40;2.45;;;0.50;;
13457;SDS011;6801;53.018;11.560;2023-03-14T09:05:09;1.80;;;0.50;;
13457;SDS011;6801;53.018;11.560;2023-03-14T09:07:36;3.67;;;0.40;;
13457;SDS011;6801;53.018;11.560;2023-03-14T09:10:03;2.38;;;0.43;;
13457;SDS011;6801;53.018;11.560;2023-03-14T09:12:31;3.83;;;0.73;;
13457;SDS011;6801;53.018;11.560;2023-03-14T09:14:58;2.47;;;0.30;;
13457;SDS011;6801;53.018;11.560;2023-03-14T09:17:25;3.28;;;0.25;;
13457;SDS011;6801;53.018;11.560;2023-03-14T09:19:52;1.60;;;0.30;;
13457;SDS011;6801;53.018;11.560;2023-03-14T09:22:21;2.97;;;0.47;;
13457;SDS011;6801;53.018;11.560;2023-03-14T09:24:48;1.95;;;0.40;;
13457;SDS011;6801;53.018;11.560;2023-03-14T09:27:15;2.50;;;0.50;;
13457;SDS011;6801;53.018;11.560;2023-03-14T09:29:42;4.25;;;0.52;;
13457;SDS011;6801;53.018;11.560;2023-03-14T09:32:09;8.13;;;3.17;;
13457;SDS011;6801;53.018;11.560;2023-03-14T09:34:36;4.85;;;1.52;;
13457;SDS011;6801;53.018;11.560;2023-03-14T09:37:03;3.03;;;0.95;;
13457;SDS011;6801;53.018;11.560;2023-03-14T09:39:31;3.30;;;0.50;;
13457;SDS011;6801;53.018;11.560;2023-03-14T09:41:58;1.58;;;0.45;;
13457;SDS011;6801;53.018;11.560;2023-03-14T09:44:30;1.40;;;0.30;;
13457;SDS011;6801;53.018;11.560;2023-03-14T09:47:00;3.30;;;0.70;;
13457;SDS011;6801;53.018;11.560;2023-03-14T09:49:29;2.80;;;0.35;;
13457;SDS011;6801;53.018;11.560;2023-03-14T09:51:58;2.83;;;0.52;;
13457;SDS011;6801;53.018;11.560;2023-03-14T09:54:31;1.48;;;0.65;;
13457;SDS011;6801;53.018;11.560;2023-03-14T09:57:01;1.02;;;0.10;;
13457;SDS011;6801;53.018;11.560;2023-03-14T09:59:29;2.25;;;0.20;;
13457;SDS011;6801;53.018;11.560;2023-03-14T10:01:57;0.75;;;0.20;;
13457;SDS011;6801;53.018;11.560;2023-03-14T10:04:27;1.45;;;0.20;;
13457;SDS011;6801;53.018;11.560;2023-03-14T10:06:57;0.20;;;0.10;;
13457;SDS011;6801;53.018;11.560;2023-03-14T10:09:24;1.25;;;0.35;;
13457;SDS011;6801;53.018;11.560;2023-03-14T10:11:55;2.05;;;0.10;;
13457;SDS011;6801;53.018;11.560;2023-03-14T10:14:28;2.83;;;0.10;;
13457;SDS011;6801;53.018;11.560;2023-03-14T10:16:59;0.65;;;0.20;;
13457;SDS011;6801;53.018;11.560;2023-03-14T10:19:32;1.90;;;0.43;;
13457;SDS011;6801;53.018;11.560;2023-03-14T10:22:01;0.68;;;0.15;;
13457;SDS011;6801;53.018;11.560;2023-03-14T10:24:30;0.65;;;0.20;;
13457;SDS011;6801;53.018;11.560;2023-03-14T10:27:01;0.35;;;0.10;;
13457;SDS011;6801;53.018;11.560;2023-03-14T10:29:29;1.08;;;0.13;;
13457;SDS011;6801;53.018;11.560;2023-03-14T10:31:58;3.17;;;0.65;;
13457;SDS011;6801;53.018;11.560;2023-03-14T10:34:27;0.55;;;0.10;;
13457;SDS011;6801;53.018;11.560;2023-03-14T10:36:56;1.00;;;0.20;;
13457;SDS011;6801;53.018;11.560;2023-03-14T10:39:36;0.63;;;0.03;;
13457;SDS011;6801;53.018;11.560;2023-03-14T10:42:14;1.85;;;0.10;;
13457;SDS011;6801;53.018;11.560;2023-03-14T10:44:45;1.75;;;0.25;;
13457;SDS011;6801;53.018;11.560;2023-03-14T10:47:16;1.38;;;0.15;;
13457;SDS011;6801;53.018;11.560;2023-03-14T10:49:45;0.65;;;0.17;;
13457;SDS011;6801;53.018;11.560;2023-03-14T10:52:15;0.88;;;0.22;;
13457;SDS011;6801;53.018;11.560;2023-03-14T10:54:48;0.47;;;0.10;;
13457;SDS011;6801;53.018;11.560;2023-03-14T10:57:22;1.48;;;0.20;;
13457;SDS011;6801;53.018;11.560;2023-03-14T10:59:49;1.90;;;0.10;;
13457;SDS011;6801;53.018;11.560;2023-03-14T11:02:22;2.33;;;0.20;;
13457;SDS011;6801;53.018;11.560;2023-03-14T11:05:09;1.13;;;0.10;;
13457;SDS011;6801;53.018;11.560;2023-03-14T11:07:42;1.10;;;0.10;;
13457;SDS011;6801;53.018;11.560;2023-03-14T11:10:12;1.90;;;0.20;;
13457;SDS011;6801;53.018;11.560;2023-03-14T11:12:48;0.52;;;0.25;;
13457;SDS011;6801;53.018;11.560;2023-03-14T11:15:29;0.45;;;0.13;;
13457;SDS011;6801;53.018;11.560;2023-03-14T11:18:09;1.20;;;0.40;;
13457;SDS011;6801;53.018;11.560;2023-03-14T11:20:47;0.17;;;0.10;;
13457;SDS011;6801;53.018;11.560;2023-03-14T11:23:20;0.98;;;0.15;;
13457;SDS011;6801;53.018;11.560;2023-03-14T11:25:51;1.75;;;0.30;;
13457;SDS011;6801;53.018;11.560;2023-03-14T11:28:28;1.65;;;0.28;;
13457;SDS011;6801;53.018;11.560;2023-03-14T11:31:03;0.47;;;0.20;;
13457;SDS011;6801;53.018;11.560;2023-03-14T11:33:44;0.73;;;0.10;;
13457;SDS011;6801;53.018;11.560;2023-03-14T11:36:16;0.20;;;0.10;;
13457;SDS011;6801;53.018;11.560;2023-03-14T11:38:51;2.53;;;0.10;;
13457;SDS011;6801;53.018;11.560;2023-03-14T11:41:22;1.08;;;0.20;;
13457;SDS011;6801;53.018;11.560;2023-03-14T11:46:22;3.30;;;0.30;;
13457;SDS011;6801;53.018;11.560;2023-03-14T11:48:55;0.20;;;0.17;;
13457;SDS011;6801;53.018;11.560;2023-03-14T11:51:28;2.00;;;0.30;;
13457;SDS011;6801;53.018;11.560;2023-03-14T11:53:59;2.38;;;0.30;;
13457;SDS011;6801;53.018;11.560;2023-03-14T11:56:32;0.30;;;0.25;;
13457;SDS011;6801;53.018;11.560;2023-03-14T11:59:07;0.40;;;0.20;;
13457;SDS011;6801;53.018;11.560;2023-03-14T12:01:44;1.48;;;0.52;;
13457;SDS011;6801;53.018;11.560;2023-03-14T12:04:20;0.75;;;0.38;;
13457;SDS011;6801;53.018;11.560;2023-03-14T12:06:57;0.63;;;0.35;;
13457;SDS011;6801;53.018;11.560;2023-03-14T12:09:30;0.75;;;0.30;;
13457;SDS011;6801;53.018;11.560;2023-03-14T12:11:58;1.98;;;0.35;;
13457;SDS011;6801;53.018;11.560;2023-03-14T12:14:29;0.68;;;0.30;;
13457;SDS011;6801;53.018;11.560;2023-03-14T12:16:59;0.95;;;0.40;;
13457;SDS011;6801;53.018;11.560;2023-03-14T12:19:33;1.40;;;0.50;;
13457;SDS011;6801;53.018;11.560;2023-03-14T12:25:03;2.67;;;0.32;;
13457;SDS011;6801;53.018;11.560;2023-03-14T12:27:46;1.15;;;0.43;;
13457;SDS011;6801;53.018;11.560;2023-03-14T12:30:24;1.50;;;0.30;;
13457;SDS011;6801;53.018;11.560;2023-03-14T12:35:59;0.22;;;0.20;;
13457;SDS011;6801;53.018;11.560;2023-03-14T12:41:05;0.00;;;0.00;;
13457;SDS011;6801;53.018;11.560;2023-03-14T12:43:38;0.10;;;0.08;;
13457;SDS011;6801;53.018;11.560;2023-03-14T12:46:18;0.30;;;0.20;;
13457;SDS011;6801;53.018;11.560;2023-03-14T12:48:48;0.13;;;0.10;;
13457;SDS011;6801;53.018;11.560;2023-03-14T12:51:17;0.03;;;0.03;;
13457;SDS011;6801;53.018;11.560;2023-03-14T12:53:55;0.20;;;0.17;;
13457;SDS011;6801;53.018;11.560;2023-03-14T12:56:42;1.27;;;0.10;;
13457;SDS011;6801;53.018;11.560;2023-03-14T12:59:27;0.10;;;0.00;;
13457;SDS011;6801;53.018;11.560;2023-03-14T13:02:01;0.00;;;0.00;;
13457;SDS011;6801;53.018;11.560;2023-03-14T13:04:43;0.15;;;0.10;;
13457;SDS011;6801;53.018;11.560;2023-03-14T13:07:12;0.20;;;0.10;;
13457;SDS011;6801;53.018;11.560;2023-03-14T13:09:54;0.47;;;0.20;;
13457;SDS011;6801;53.018;11.560;2023-03-14T13:12:32;0.75;;;0.10;;
13457;SDS011;6801;53.018;11.560;2023-03-14T13:15:13;0.00;;;0.00;;
13457;SDS011;6801;53.018;11.560;2023-03-14T13:17:46;0.10;;;0.00;;
13457;SDS011;6801;53.018;11.560;2023-03-14T13:20:15;2.10;;;0.10;;
13457;SDS011;6801;53.018;11.560;2023-03-14T13:22:46;0.10;;;0.08;;
13457;SDS011;6801;53.018;11.560;2023-03-14T13:25:15;0.25;;;0.10;;
13457;SDS011;6801;53.018;11.560;2023-03-14T13:27:43;0.00;;;0.00;;
13457;SDS011;6801;53.018;11.560;2023-03-14T13:30:21;0.00;;;0.00;;
13457;SDS011;6801;53.018;11.560;2023-03-14T13:32:51;0.65;;;0.10;;
13457;SDS011;6801;53.018;11.560;2023-03-14T13:35:21;0.32;;;0.00;;
13457;SDS011;6801;53.018;11.560;2023-03-14T13:37:56;1.13;;;0.00;;
13457;SDS011;6801;53.018;11.560;2023-03-14T13:40:26;0.00;;;0.00;;
13457;SDS011;6801;53.018;11.560;2023-03-14T13:43:03;0.00;;;0.00;;
13457;SDS011;6801;53.018;11.560;2023-03-14T13:45:41;0.30;;;0.00;;
13457;SDS011;6801;53.018;11.560;2023-03-14T13:48:13;3.25;;;0.22;;
13457;SDS011;6801;53.018;11.560;2023-03-14T13:50:45;0.28;;;0.10;;
13457;SDS011;6801;53.018;11.560;2023-03-14T13:53:15;0.90;;;0.15;;
13457;SDS011;6801;53.018;11.560;2023-03-14T13:55:42;0.90;;;0.15;;
13457;SDS011;6801;53.018;11.560;2023-03-14T13:58:11;0.43;;;0.20;;
13457;SDS011;6801;53.018;11.560;2023-03-14T14:00:53;1.25;;;0.20;;
13457;SDS011;6801;53.018;11.560;2023-03-14T14:03:27;0.00;;;0.00;;
13457;SDS011;6801;53.018;11.560;2023-03-14T14:08:24;0.82;;;0.10;;
13457;SDS011;6801;53.018;11.560;2023-03-14T14:10:52;0.35;;;0.35;;
13457;SDS011;6801;53.018;11.560;2023-03-14T14:13:23;0.38;;;0.30;;
13457;SDS011;6801;53.018;11.560;2023-03-14T14:15:53;2.83;;;0.52;;
13457;SDS011;6801;53.018;11.560;2023-03-14T14:18:22;3.40;;;0.35;;
13457;SDS011;6801;53.018;11.560;2023-03-14T14:20:54;2.67;;;0.45;;
13457;SDS011;6801;53.018;11.560;2023-03-14T14:23:22;2.42;;;0.40;;
13457;SDS011;6801;53.018;11.560;2023-03-14T14:25:54;1.85;;;0.50;;
13457;SDS011;6801;53.018;11.560;2023-03-14T14:28:23;1.63;;;0.22;;
13457;SDS011;6801;53.018;11.560;2023-03-14T14:33:37;3.17;;;0.47;;
13457;SDS011;6801;53.018;11.560;2023-03-14T14:36:13;2.75;;;0.20;;
13457;SDS011;6801;53.018;11.560;2023-03-14T14:38:48;2.75;;;0.82;;
13457;SDS011;6801;53.018;11.560;2023-03-14T14:41:16;1.85;;;0.25;;
13457;SDS011;6801;53.018;11.560;2023-03-14T14:43:43;3.13;;;0.30;;
13457;SDS011;6801;53.018;11.560;2023-03-14T14:46:13;5.97;;;0.65;;
13457;SDS011;6801;53.018;11.560;2023-03-14T14:48:43;2.70;;;0.43;;
13457;SDS011;6801;53.018;11.560;2023-03-14T14:51:21;4.30;;;0.55;;
13457;SDS011;6801;53.018;11.560;2023-03-14T14:53:59;2.35;;;0.50;;
13457;SDS011;6801;53.018;11.560;2023-03-14T14:56:29;4.03;;;0.70;;
13457;SDS011;6801;53.018;11.560;2023-03-14T14:58:57;2.75;;;0.30;;
13457;SDS011;6801;53.018;11.560;2023-03-14T15:01:26;3.88;;;0.40;;
13457;SDS011;6801;53.018;11.560;2023-03-14T15:03:59;5.93;;;0.30;;
13457;SDS011;6801;53.018;11.560;2023-03-14T15:06:29;4.68;;;0.32;;
13457;SDS011;6801;53.018;11.560;2023-03-14T15:08:57;4.43;;;1.15;;
13457;SDS011;6801;53.018;11.560;2023-03-14T15:11:25;6.35;;;1.08;;
13457;SDS011;6801;53.018;11.560;2023-03-14T15:13:53;4.18;;;0.30;;
13457;SDS011;6801;53.018;11.560;2023-03-14T15:16:21;4.10;;;0.60;;
13457;SDS011;6801;53.018;11.560;2023-03-14T15:18:51;2.90;;;0.50;;
13457;SDS011;6801;53.018;11.560;2023-03-14T15:21:21;1.65;;;0.30;;
13457;SDS011;6801;53.018;11.560;2023-03-14T15:23:50;7.00;;;0.70;;
13457;SDS011;6801;53.018;11.560;2023-03-14T15:26:17;4.47;;;0.57;;
13457;SDS011;6801;53.018;11.560;2023-03-14T15:28:46;6.40;;;0.75;;
13457;SDS011;6801;53.018;11.560;2023-03-14T15:31:13;9.18;;;0.90;;
13457;SDS011;6801;53.018;11.560;2023-03-14T15:33:42;7.55;;;1.27;;